Time;durP1;ratioP1;P1;durP2;ratioP2;P2;SDS_P1;SDS_P2;PMS_P1;PMS_P2;Temp;Humidity;BMP_temperature;BMP_pressure;BME280_temperature;BME280_humidity;BME280_pressure;Samples;Min_cycle;Max_cycle;Signal;HPM_P1;HPM_P2
2023/05/14 00:02:09;;;;;;;23.10;10.50;;;;;;;12.62;43.62;101285.76;110982;1208;96321;-67
2023/05/14 00:04:34;;;;;;;23.10;10.40;;;;;;;12.59;43.66;101286.22;110881;1209;137841;-67
2023/05/14 00:06:59;;;;;;;27.80;12.30;;;;;;;12.57;43.77;101286.86;111051;1209;96221;-67
2023/05/14 00:09:25;;;;;;;30.60;12.30;;;;;;;12.55;43.86;101286.20;110925;1205;139259;-67
2023/05/14 00:11:52;;;;;;;28.00;11.20;;;;;;;12.54;43.85;101287.32;111044;1206;96349;-67
2023/05/14 00:14:17;;;;;;;22.50;10.20;;;;;;;12.53;44.02;101285.05;111015;1206;112592;-68
2023/05/14 00:16:43;;;;;;;22.40;10.90;;;;;;;12.53;44.11;101287.55;110839;1211;138066;-68
2023/05/14 00:19:08;;;;;;;27.30;11.20;;;;;;;12.51;44.25;101284.58;111078;1206;96252;-66
2023/05/14 00:21:33;;;;;;;20.10;10.90;;;;;;;12.49;44.38;101280.93;110916;1204;139401;-66
2023/05/14 00:23:59;;;;;;;28.10;11.50;;;;;;;12.46;44.56;101282.99;111109;1206;96749;-66
2023/05/14 00:26:24;;;;;;;25.70;10.70;;;;;;;12.43;44.47;101282.58;110982;1208;97512;-66
2023/05/14 00:28:49;;;;;;;32.00;13.20;;;;;;;12.40;44.64;101287.17;110891;1208;137992;-66
2023/05/14 00:31:15;;;;;;;28.60;11.70;;;;;;;12.37;44.61;101281.77;111093;1208;96301;-66
2023/05/14 00:33:40;;;;;;;33.90;11.50;;;;;;;12.34;44.75;101283.13;110947;1206;138099;-66
2023/05/14 00:36:07;;;;;;;27.40;10.90;;;;;;;12.30;44.83;101283.99;111151;1208;97144;-66
2023/05/14 00:38:32;;;;;;;33.70;11.70;;;;;;;12.28;44.90;101283.02;111109;1208;96311;-66
2023/05/14 00:40:57;;;;;;;25.70;11.50;;;;;;;12.24;45.12;101282.67;110884;1209;137900;-66
2023/05/14 00:43:24;;;;;;;24.20;10.50;;;;;;;12.21;45.41;101282.97;111136;1206;95260;-66
2023/05/14 00:45:51;;;;;;;29.50;10.10;;;;;;;12.19;45.29;101280.54;110883;1206;137928;-67
2023/05/14 00:48:18;;;;;;;30.60;11.30;;;;;;;12.14;45.46;101280.52;111052;1209;97089;-66
2023/05/14 00:50:43;;;;;;;30.90;11.60;;;;;;;12.09;45.60;101276.98;111099;1206;96240;-66
2023/05/14 00:53:10;;;;;;;27.30;11.30;;;;;;;12.03;45.70;101278.48;110859;1208;139031;-66
2023/05/14 00:55:40;;;;;;;28.60;11.70;;;;;;;11.98;45.91;101278.31;111142;1221;96315;-66
2023/05/14 00:58:09;;;;;;;33.40;12.60;;;;;;;11.92;46.07;101281.40;110973;1206;137866;-66
2023/05/14 01:00:35;;;;;;;34.70;12.10;;;;;;;11.88;46.03;101286.58;111055;1206;110270;-66
2023/05/14 01:03:03;;;;;;;32.70;12.10;;;;;;;11.85;46.24;101285.27;111047;1205;96218;-66
2023/05/14 01:05:41;;;;;;;31.60;11.80;;;;;;;11.82;46.37;101283.74;111156;1208;95112;-66
2023/05/14 01:08:21;;;;;;;27.60;11.70;;;;;;;11.80;46.44;101283.65;111054;1206;95964;-66
2023/05/14 01:10:51;;;;;;;25.50;10.80;;;;;;;11.77;46.52;101278.21;110935;1206;138806;-66
2023/05/14 01:13:42;;;;;;;23.70;12.30;;;;;;;11.73;46.75;101279.78;111123;1210;111464;-66
2023/05/14 01:16:12;;;;;;;32.40;11.00;;;;;;;11.69;46.81;101275.81;110876;1206;138299;-66
2023/05/14 01:18:39;;;;;;;31.60;11.60;;;;;;;11.64;46.84;101277.27;111218;1206;107616;-65
2023/05/14 01:21:19;;;;;;;25.20;11.40;;;;;;;11.59;47.02;101278.68;110900;1206;138187;-66
2023/05/14 01:23:44;;;;;;;31.70;11.40;;;;;;;11.54;47.21;101272.63;111196;1206;95132;-66
2023/05/14 01:26:09;;;;;;;27.00;11.60;;;;;;;11.50;47.16;101265.59;111004;1206;96333;-66
2023/05/14 01:28:37;;;;;;;30.00;11.90;;;;;;;11.47;47.33;101268.06;110909;1209;138438;-66
2023/05/14 01:31:08;;;;;;;25.30;12.20;;;;;;;11.43;47.39;101262.31;111000;1206;96333;-66
2023/05/14 01:33:35;;;;;;;23.50;12.20;;;;;;;11.39;47.52;101260.27;111025;1208;138078;-66
2023/05/14 01:36:02;;;;;;;25.00;12.00;;;;;;;11.38;47.68;101258.91;111163;1206;96724;-66
2023/05/14 01:38:30;;;;;;;27.80;12.30;;;;;;;11.34;47.83;101256.34;111212;1209;96353;-66
2023/05/14 01:40:56;;;;;;;27.10;11.50;;;;;;;11.33;47.76;101255.33;111019;1205;138833;-66
2023/05/14 01:43:22;;;;;;;27.80;11.90;;;;;;;11.30;47.82;101252.58;110991;1208;97702;-66
2023/05/14 01:45:48;;;;;;;26.00;10.90;;;;;;;11.26;48.13;101254.13;110973;1206;138272;-66
2023/05/14 01:48:13;;;;;;;30.30;11.70;;;;;;;11.24;48.15;101252.98;111025;1208;99908;-66
2023/05/14 01:50:39;;;;;;;26.10;11.40;;;;;;;11.21;48.16;101250.05;110931;1211;98126;-66
2023/05/14 01:53:04;;;;;;;30.90;12.20;;;;;;;11.19;48.37;101244.40;110949;1208;138670;-66
2023/05/14 01:55:29;;;;;;;25.80;11.30;;;;;;;11.16;48.42;101241.98;111010;1205;97715;-66
2023/05/14 01:57:54;;;;;;;23.60;10.90;;;;;;;11.14;48.45;101237.60;110916;1208;138155;-66
2023/05/14 02:00:27;;;;;;;24.70;11.20;;;;;;;11.12;48.56;101236.42;111023;1208;97585;-66
2023/05/14 02:02:52;;;;;;;17.90;10.50;;;;;;;11.12;48.56;101237.48;111006;1206;97590;-65
2023/05/14 02:05:18;;;;;;;18.20;10.10;;;;;;;11.13;48.71;101235.67;110930;1206;138671;-66
2023/05/14 02:07:43;;;;;;;22.40;11.50;;;;;;;11.15;48.80;101237.94;111060;1211;97664;-66
2023/05/14 02:10:10;;;;;;;20.20;10.10;;;;;;;11.16;48.80;101236.09;110978;1206;138733;-65
2023/05/14 02:12:35;;;;;;;24.60;11.60;;;;;;;11.18;48.97;101233.69;111096;1208;97547;-66
2023/05/14 02:15:02;;;;;;;26.60;10.30;;;;;;;11.20;49.07;101230.21;111030;1206;97657;-66
2023/05/14 02:17:28;;;;;;;21.60;11.20;;;;;;;11.22;49.08;101224.77;111129;1211;138165;-66
2023/05/14 02:19:53;;;;;;;21.30;11.10;;;;;;;11.23;48.98;101226.71;110989;1208;97568;-67
2023/05/14 02:22:18;;;;;;;25.60;11.30;;;;;;;11.23;49.14;101223.85;111007;1206;138119;-66
2023/05/14 02:24:43;;;;;;;27.40;11.20;;;;;;;11.22;49.24;101220.68;111125;1208;97687;-66
2023/05/14 02:27:11;;;;;;;22.40;11.20;;;;;;;11.21;49.40;101216.93;110991;1206;138862;-66
2023/05/14 02:29:37;;;;;;;23.00;10.90;;;;;;;11.20;49.27;101222.36;111088;1206;97594;-66
2023/05/14 02:32:02;;;;;;;19.20;11.70;;;;;;;11.20;49.42;101222.01;111110;1206;97734;-66
2023/05/14 02:34:28;;;;;;;24.30;11.30;;;;;;;11.18;49.45;101218.66;110899;1208;141456;-66
2023/05/14 02:36:53;;;;;;;21.70;11.80;;;;;;;11.16;49.62;101217.33;111001;1206;97736;-66
2023/05/14 02:39:18;;;;;;;18.20;10.40;;;;;;;11.14;49.78;101219.71;110861;1206;141145;-66
2023/05/14 02:41:43;;;;;;;22.80;11.10;;;;;;;11.12;49.90;101219.77;111032;1208;97586;-66
2023/05/14 02:44:09;;;;;;;22.70;11.30;;;;;;;11.09;49.80;101216.85;111021;1208;97662;-66
2023/05/14 02:46:34;;;;;;;25.10;10.90;;;;;;;11.05;49.83;101217.70;110941;1206;139621;-66
2023/05/14 02:48:59;;;;;;;22.20;11.80;;;;;;;10.97;49.94;101213.88;110990;1206;97580;-66
2023/05/14 02:51:25;;;;;;;23.10;11.40;;;;;;;10.91;50.07;101216.06;110945;1206;138780;-66
2023/05/14 02:53:51;;;;;;;27.90;11.70;;;;;;;10.87;50.10;101219.27;111021;1209;97577;-66
2023/05/14 02:56:17;;;;;;;24.10;11.70;;;;;;;10.82;50.17;101216.38;111009;1206;97533;-66
2023/05/14 02:58:42;;;;;;;22.00;12.10;;;;;;;10.75;50.43;101216.48;110998;1206;138100;-66
2023/05/14 03:01:07;;;;;;;20.60;10.80;;;;;;;10.68;50.50;101217.06;110983;1205;97581;-66
2023/05/14 03:03:34;;;;;;;23.40;12.10;;;;;;;10.63;50.54;101216.88;110990;1206;140623;-66
2023/05/14 03:06:00;;;;;;;29.20;12.70;;;;;;;10.58;50.82;101219.73;111101;1206;109961;-66
2023/05/14 03:08:25;;;;;;;19.90;10.00;;;;;;;10.54;50.90;101224.68;111048;1206;97654;-66
2023/05/14 03:10:51;;;;;;;20.00;11.30;;;;;;;10.50;50.97;101222.70;110985;1211;138041;-66
2023/05/14 03:13:18;;;;;;;17.70;11.30;;;;;;;10.45;51.06;101219.48;111057;1206;97753;-66
2023/05/14 03:15:44;;;;;;;18.90;11.40;;;;;;;10.37;51.18;101222.98;110898;1206;138875;-66
2023/05/14 03:18:09;;;;;;;20.10;11.80;;;;;;;10.32;51.39;101224.02;110982;1207;97668;-66
2023/05/14 03:20:34;;;;;;;26.80;11.60;;;;;;;10.27;51.60;101222.42;111051;1206;97744;-66
2023/05/14 03:23:00;;;;;;;20.60;11.60;;;;;;;10.24;51.92;101223.78;110945;1209;138251;-66
2023/05/14 03:25:25;;;;;;;23.90;11.60;;;;;;;10.24;51.94;101227.52;111115;1209;97607;-66
2023/05/14 03:27:50;;;;;;;19.40;11.90;;;;;;;10.23;52.21;101226.64;110891;1209;139100;-66
2023/05/14 03:30:16;;;;;;;24.50;12.30;;;;;;;10.21;52.22;101226.36;111120;1208;97770;-66
2023/05/14 03:32:41;;;;;;;24.60;11.70;;;;;;;10.20;52.52;101227.29;110971;1206;111540;-66
2023/05/14 03:35:07;;;;;;;26.00;11.60;;;;;;;10.20;52.57;101228.52;110976;1208;139930;-66
2023/05/14 03:37:33;;;;;;;29.90;11.30;;;;;;;10.22;52.72;101224.20;111067;1208;97706;-66
2023/05/14 03:39:58;;;;;;;25.80;11.40;;;;;;;10.23;52.80;101225.24;110902;1205;139373;-66
2023/05/14 03:42:23;;;;;;;22.50;11.70;;;;;;;10.24;52.94;101225.92;111073;1205;97724;-66
2023/05/14 03:44:49;;;;;;;20.90;11.20;;;;;;;10.25;53.19;101226.58;110983;1208;97633;-66
2023/05/14 03:47:14;;;;;;;22.50;11.20;;;;;;;10.30;53.22;101225.34;110936;1205;139404;-66
2023/05/14 03:49:40;;;;;;;19.80;11.10;;;;;;;10.34;53.43;101224.33;111081;1208;97594;-66
2023/05/14 03:52:05;;;;;;;20.50;11.60;;;;;;;10.40;53.43;101221.77;110913;1215;138850;-66
2023/05/14 03:54:30;;;;;;;23.80;12.10;;;;;;;10.49;53.41;101222.17;111015;1206;97677;-66
2023/05/14 03:56:56;;;;;;;25.20;12.60;;;;;;;10.57;53.55;101221.20;111082;1207;98089;-66
2023/05/14 03:59:21;;;;;;;21.50;12.00;;;;;;;10.64;53.67;101224.71;110994;1208;137971;-67
2023/05/14 04:01:46;;;;;;;22.80;11.80;;;;;;;10.72;53.78;101218.71;111065;1207;97700;-67
2023/05/14 04:04:11;;;;;;;26.10;11.70;;;;;;;10.82;53.80;101217.13;110903;1207;138020;-66
2023/05/14 04:06:37;;;;;;;28.20;11.70;;;;;;;10.87;53.79;101226.77;111166;1209;98813;-67
2023/05/14 04:09:02;;;;;;;20.50;10.90;;;;;;;10.90;53.87;101224.32;110981;1208;100210;-67
2023/05/14 04:11:28;;;;;;;21.00;11.10;;;;;;;10.91;53.94;101225.53;110954;1209;138729;-67
2023/05/14 04:13:53;;;;;;;22.60;12.10;;;;;;;10.92;53.91;101220.68;111159;1206;97664;-65
2023/05/14 04:16:18;;;;;;;21.00;11.60;;;;;;;10.93;54.02;101217.63;110977;1206;139153;-68
2023/05/14 04:18:44;;;;;;;18.80;11.00;;;;;;;10.94;54.06;101218.98;111031;1208;97606;-67
2023/05/14 04:21:09;;;;;;;21.70;10.70;;;;;;;10.96;54.10;101216.42;110852;1208;138271;-66
2023/05/14 04:23:34;;;;;;;19.10;11.50;;;;;;;10.96;54.00;101217.50;111062;1206;96898;-67
2023/05/14 04:25:59;;;;;;;22.60;11.10;;;;;;;10.97;54.11;101216.56;110994;1208;98348;-67
2023/05/14 04:28:25;;;;;;;24.70;12.00;;;;;;;10.97;54.25;101214.23;110898;1206;138888;-67
2023/05/14 04:30:50;;;;;;;20.10;11.90;;;;;;;11.00;54.17;101213.95;111035;1212;97886;-67
2023/05/14 04:33:16;;;;;;;20.10;11.40;;;;;;;11.03;54.41;101213.33;110871;1208;138856;-67
2023/05/14 04:35:41;;;;;;;21.10;12.10;;;;;;;11.08;54.31;101215.98;110985;1207;97586;-67
2023/05/14 04:38:06;;;;;;;28.10;12.20;;;;;;;11.13;54.31;101218.86;110943;1208;97568;-67
2023/05/14 04:40:32;;;;;;;21.80;12.10;;;;;;;11.17;54.32;101221.40;110900;1208;139417;-67
2023/05/14 04:42:57;;;;;;;19.50;11.70;;;;;;;11.24;54.32;101218.25;111019;1208;97696;-67
2023/05/14 04:45:22;;;;;;;25.50;11.20;;;;;;;11.33;54.30;101213.08;110906;1209;138797;-67
2023/05/14 04:47:48;;;;;;;20.60;11.90;;;;;;;11.44;54.49;101207.32;111029;1209;97638;-67
2023/05/14 04:50:14;;;;;;;24.60;12.20;;;;;;;11.56;54.43;101208.11;111029;1208;98094;-67
2023/05/14 04:52:39;;;;;;;27.20;12.60;;;;;;;11.69;54.36;101206.89;110875;1208;138270;-67
2023/05/14 04:55:05;;;;;;;20.70;11.50;;;;;;;11.81;54.44;101212.16;110940;1208;96451;-67
2023/05/14 04:57:31;;;;;;;23.30;11.30;;;;;;;11.92;54.42;101209.94;111144;1208;138258;-65
2023/05/14 04:59:56;;;;;;;23.40;12.00;;;;;;;12.03;54.38;101206.48;111011;1219;97678;-65
2023/05/14 05:02:21;;;;;;;28.40;11.80;;;;;;;12.16;54.40;101208.42;111019;1209;97702;-65
2023/05/14 05:04:47;;;;;;;19.50;11.70;;;;;;;12.28;54.41;101207.39;110947;1206;138119;-67
2023/05/14 05:07:13;;;;;;;28.40;12.30;;;;;;;12.41;54.45;101207.59;111100;1206;97719;-67
2023/05/14 05:09:39;;;;;;;29.80;11.90;;;;;;;12.53;54.33;101205.98;111163;1206;138672;-67
2023/05/14 05:12:05;;;;;;;17.70;11.30;;;;;;;12.66;54.33;101207.96;111341;1208;107332;-67
2023/05/14 05:14:30;;;;;;;24.20;11.80;;;;;;;12.78;54.27;101205.08;111624;1208;97617;-67
2023/05/14 05:16:55;;;;;;;26.10;11.40;;;;;;;12.92;54.29;101204.13;111093;1208;138408;-67
2023/05/14 05:19:20;;;;;;;22.50;10.70;;;;;;;13.02;54.22;101200.75;111009;1212;97597;-67
2023/05/14 05:21:46;;;;;;;25.50;12.20;;;;;;;13.12;54.08;101198.15;110993;1209;138653;-67
2023/05/14 05:24:12;;;;;;;23.80;11.00;;;;;;;13.18;54.06;101198.26;110929;1206;97619;-67
2023/05/14 05:26:38;;;;;;;19.00;10.80;;;;;;;13.23;54.01;101199.11;111067;1209;98052;-67
2023/05/14 05:29:04;;;;;;;27.20;11.40;;;;;;;13.30;53.96;101200.41;110949;1209;140883;-67
2023/05/14 05:31:30;;;;;;;24.00;11.40;;;;;;;13.40;53.86;101190.98;111214;1208;97712;-67
2023/05/14 05:33:57;;;;;;;18.10;11.20;;;;;;;13.49;53.77;101193.24;111130;1210;138396;-65
2023/05/14 05:36:22;;;;;;;20.40;11.60;;;;;;;13.57;53.78;101190.35;111002;1205;97732;-67
2023/05/14 05:38:48;;;;;;;19.50;11.30;;;;;;;13.66;53.67;101183.65;111069;1208;97654;-67
2023/05/14 05:41:13;;;;;;;22.90;11.60;;;;;;;13.73;53.53;101184.05;110917;1209;139027;-69
2023/05/14 05:43:38;;;;;;;21.80;10.70;;;;;;;13.76;53.50;101183.72;111061;1206;97584;-67
2023/05/14 05:46:04;;;;;;;21.70;12.10;;;;;;;13.85;53.41;101180.21;111051;1206;139023;-67
2023/05/14 05:48:29;;;;;;;21.30;12.00;;;;;;;13.97;53.46;101179.08;111067;1208;98100;-67
2023/05/14 05:50:54;;;;;;;21.90;12.40;;;;;;;14.09;53.21;101174.77;111143;1206;97665;-67
2023/05/14 05:53:20;;;;;;;19.00;11.00;;;;;;;14.17;53.07;101176.66;110870;1206;138070;-67
2023/05/14 05:55:45;;;;;;;22.30;11.10;;;;;;;14.27;53.00;101177.98;111088;1208;97667;-67
2023/05/14 05:58:11;;;;;;;24.20;11.80;;;;;;;14.38;52.98;101182.27;110933;1206;138543;-67
2023/05/14 06:00:36;;;;;;;22.80;11.20;;;;;;;14.49;52.96;101179.39;111117;1206;97697;-67
2023/05/14 06:03:01;;;;;;;22.20;12.00;;;;;;;14.61;52.77;101180.02;110981;1206;98275;-67
2023/05/14 06:05:27;;;;;;;18.30;10.90;;;;;;;14.70;52.60;101179.58;110960;1205;138149;-67
2023/05/14 06:07:52;;;;;;;22.80;11.50;;;;;;;14.79;52.53;101177.48;111145;1206;97687;-66
2023/05/14 06:10:18;;;;;;;19.10;11.40;;;;;;;14.86;52.41;101174.23;110934;1205;139325;-67
2023/05/14 06:12:44;;;;;;;19.00;11.40;;;;;;;14.92;52.27;101173.02;110952;1212;97757;-67
2023/05/14 06:15:11;;;;;;;21.50;10.60;;;;;;;15.02;52.25;101171.42;111050;1206;97582;-65
2023/05/14 06:17:36;;;;;;;18.90;10.50;;;;;;;15.11;52.04;101169.81;111115;1208;137935;-66
2023/05/14 06:20:02;;;;;;;28.50;11.20;;;;;;;15.17;51.90;101169.87;111016;1209;97595;-66
2023/05/14 06:22:27;;;;;;;19.60;10.80;;;;;;;15.26;51.79;101162.55;110998;1208;139063;-67
2023/05/14 06:24:52;;;;;;;19.40;10.60;;;;;;;15.34;51.68;101162.45;111020;1206;97703;-66
2023/05/14 06:27:17;;;;;;;18.70;10.90;;;;;;;15.41;51.44;101157.20;111000;1205;139283;-66
2023/05/14 06:29:42;;;;;;;20.50;11.30;;;;;;;15.39;51.14;101163.26;111042;1206;97571;-66
2023/05/14 06:32:09;;;;;;;18.20;10.60;;;;;;;15.37;51.12;101163.91;111107;1206;97698;-66
2023/05/14 06:34:34;;;;;;;20.30;11.00;;;;;;;15.38;50.98;101169.25;110935;1206;140036;-67
2023/05/14 06:37:01;;;;;;;23.40;11.10;;;;;;;15.42;50.93;101167.95;110890;1212;97667;-66
2023/05/14 06:39:26;;;;;;;16.40;9.80;;;;;;;15.49;50.88;101170.83;110818;1206;139828;-67
2023/05/14 06:41:52;;;;;;;17.30;9.70;;;;;;;15.56;50.77;101168.62;111037;1208;97602;-66
2023/05/14 06:44:18;;;;;;;19.60;10.00;;;;;;;15.68;50.76;101171.59;111091;1207;97694;-66
2023/05/14 06:46:43;;;;;;;19.50;10.50;;;;;;;15.82;50.77;101172.16;110910;1212;138142;-67
2023/05/14 06:49:08;;;;;;;16.90;10.20;;;;;;;15.96;50.65;101167.96;111014;1208;98581;-65
2023/05/14 06:51:35;;;;;;;17.10;9.70;;;;;;;16.03;50.41;101167.56;110975;1206;139167;-66
2023/05/14 06:54:00;;;;;;;24.20;10.80;;;;;;;16.07;50.35;101161.01;111033;1206;98416;-66
2023/05/14 06:56:26;;;;;;;20.10;10.50;;;;;;;16.23;50.50;101162.44;111087;1212;96458;-66
2023/05/14 06:58:51;;;;;;;14.10;8.50;;;;;;;16.43;50.41;101159.98;110869;1208;138081;-66
2023/05/14 07:01:17;;;;;;;17.20;9.10;;;;;;;16.59;50.33;101157.05;110981;1205;99761;-64
2023/05/14 07:03:42;;;;;;;15.20;8.70;;;;;;;16.73;50.14;101150.45;111032;1209;138995;-64
2023/05/14 07:06:07;;;;;;;16.80;8.50;;;;;;;16.78;49.99;101146.37;110989;1208;97678;-64
2023/05/14 07:08:32;;;;;;;17.90;9.30;;;;;;;16.78;49.90;101143.61;111044;1208;97681;-64
2023/05/14 07:10:58;;;;;;;17.80;8.90;;;;;;;16.78;49.77;101141.27;110819;1210;138960;-64
2023/05/14 07:13:27;;;;;;;12.70;8.00;;;;;;;16.80;49.86;101137.17;111047;1206;97625;-65
2023/05/14 07:15:54;;;;;;;15.60;7.90;;;;;;;16.84;49.65;101136.92;110959;1208;139051;-64
2023/05/14 07:18:20;;;;;;;15.40;7.30;;;;;;;16.89;49.36;101131.24;110979;1209;96476;-65
2023/05/14 07:20:45;;;;;;;10.00;6.10;;;;;;;16.91;49.29;101129.84;110964;1206;97629;-65
2023/05/14 07:23:12;;;;;;;10.00;5.60;;;;;;;16.93;48.95;101125.38;111049;1209;138862;-65
2023/05/14 07:25:37;;;;;;;10.70;5.50;;;;;;;16.96;48.91;101130.04;111090;1205;96492;-65
2023/05/14 07:28:03;;;;;;;9.90;5.50;;;;;;;16.99;48.77;101121.73;110918;1206;138643;-65
2023/05/14 07:30:28;;;;;;;10.30;5.50;;;;;;;17.03;48.72;101122.05;111071;1209;97751;-65
2023/05/14 07:32:53;;;;;;;9.70;5.80;;;;;;;17.07;48.37;101119.96;111018;1205;96501;-64
2023/05/14 07:35:19;;;;;;;9.40;5.30;;;;;;;17.13;48.28;101116.91;110995;1207;140061;-65
2023/05/14 07:37:44;;;;;;;11.50;5.80;;;;;;;17.19;48.11;101112.17;111243;1206;98096;-65
2023/05/14 07:40:09;;;;;;;8.10;4.90;;;;;;;17.25;47.83;101109.28;110892;1208;138527;-66
2023/05/14 07:42:35;;;;;;;9.00;5.20;;;;;;;17.28;47.49;101108.16;110932;1209;98966;-65
2023/05/14 07:45:00;;;;;;;12.40;5.20;;;;;;;17.31;47.45;101108.00;110991;1209;96376;-65
2023/05/14 07:47:25;;;;;;;11.00;5.00;;;;;;;17.37;47.36;101104.15;110950;1206;138341;-65
2023/05/14 07:49:55;;;;;;;9.40;5.00;;;;;;;17.47;47.32;101100.11;111016;1208;97700;-64
2023/05/14 07:52:22;;;;;;;12.20;5.10;;;;;;;17.56;47.03;101099.70;110825;1208;141259;-64
2023/05/14 07:54:50;;;;;;;12.40;5.30;;;;;;;17.64;46.94;101100.60;111216;1208;98158;-64
2023/05/14 07:57:15;;;;;;;7.60;4.60;;;;;;;17.68;46.67;101096.94;110996;1206;139772;-65
2023/05/14 07:59:41;;;;;;;6.00;4.60;;;;;;;17.71;46.61;101102.14;111142;1206;97678;-64
2023/05/14 08:02:08;;;;;;;9.50;4.40;;;;;;;17.74;46.53;101099.94;111048;1206;97690;-64
2023/05/14 08:04:35;;;;;;;8.80;4.10;;;;;;;17.80;46.33;101095.61;110857;1206;137753;-64
2023/05/14 08:07:00;;;;;;;7.90;4.60;;;;;;;17.88;46.16;101093.26;111033;1206;97692;-64
2023/05/14 08:09:26;;;;;;;9.10;5.50;;;;;;;17.98;46.10;101092.42;111008;1209;137929;-64
2023/05/14 08:11:52;;;;;;;9.80;4.70;;;;;;;18.04;45.87;101089.30;110979;1206;97590;-64
2023/05/14 08:14:17;;;;;;;7.70;4.70;;;;;;;18.10;45.68;101085.77;110936;1205;97789;-63
2023/05/14 08:16:43;;;;;;;12.40;5.30;;;;;;;18.23;45.71;101087.56;110915;1205;138862;-59
2023/05/14 08:19:08;;;;;;;8.50;4.50;;;;;;;18.37;45.80;101086.05;110934;1206;98005;-66
2023/05/14 08:21:33;;;;;;;7.30;4.60;;;;;;;18.49;45.49;101084.10;110956;1206;137885;-64
2023/05/14 08:23:58;;;;;;;9.30;4.20;;;;;;;18.61;45.42;101080.84;110966;1205;97710;-61
2023/05/14 08:26:24;;;;;;;10.80;4.50;;;;;;;18.73;45.18;101075.98;110978;1206;99056;-61
2023/05/14 08:28:49;;;;;;;9.60;4.30;;;;;;;18.80;45.03;101071.83;111052;1209;139925;-62
2023/05/14 08:31:15;;;;;;;10.20;4.00;;;;;;;18.91;44.91;101073.98;110944;1209;97687;-63
2023/05/14 08:33:40;;;;;;;4.00;3.40;;;;;;;19.07;44.87;101077.14;110821;1206;138136;-61
2023/05/14 08:36:06;;;;;;;8.80;3.30;;;;;;;19.24;44.75;101075.59;111053;1206;96457;-61
2023/05/14 08:38:32;;;;;;;5.90;3.10;;;;;;;19.29;44.41;101068.30;111026;1206;97700;-60
2023/05/14 08:40:58;;;;;;;10.50;3.60;;;;;;;19.34;44.08;101070.31;110865;1208;137740;-60
2023/05/14 08:43:35;;;;;;;7.00;4.20;;;;;;;19.47;43.95;101076.64;111060;1206;97588;-60
2023/05/14 08:46:04;;;;;;;7.80;3.40;;;;;;;19.66;43.85;101079.79;110898;1209;141407;-60
2023/05/14 08:48:33;;;;;;;9.80;3.50;;;;;;;19.82;43.58;101076.25;111067;1209;99059;-61
2023/05/14 08:50:59;;;;;;;6.90;3.50;;;;;;;19.90;43.32;101069.59;111013;1206;99400;-60
2023/05/14 08:53:25;;;;;;;7.00;3.20;;;;;;;19.88;43.04;101066.49;111083;1206;138293;-60
2023/05/14 08:55:50;;;;;;;5.80;3.50;;;;;;;19.87;42.92;101066.41;111303;1206;98243;-61
2023/05/14 08:58:16;;;;;;;9.90;3.50;;;;;;;19.80;42.57;101065.66;110840;1206;138402;-60
2023/05/14 09:00:42;;;;;;;7.50;3.20;;;;;;;19.76;42.49;101058.88;111007;1212;98042;-60
2023/05/14 09:03:08;;;;;;;5.50;3.10;;;;;;;19.79;42.35;101062.85;110966;1206;97690;-63
2023/05/14 09:05:34;;;;;;;6.70;3.70;;;;;;;19.78;42.04;101059.45;110857;1209;140559;-60
2023/05/14 09:08:00;;;;;;;9.60;3.70;;;;;;;19.75;41.84;101061.30;110926;1212;97754;-60
2023/05/14 09:10:25;;;;;;;5.80;3.20;;;;;;;19.84;41.82;101059.73;110859;1206;137841;-62
2023/05/14 09:12:50;;;;;;;8.50;3.30;;;;;;;19.98;41.80;101052.52;111015;1205;97687;-67
2023/05/14 09:15:16;;;;;;;6.80;3.20;;;;;;;20.08;41.52;101053.91;110842;1206;139641;-64
2023/05/14 09:17:42;;;;;;;5.40;3.00;;;;;;;20.17;41.26;101055.94;111123;1208;97714;-60
2023/05/14 09:20:10;;;;;;;7.70;3.50;;;;;;;20.24;41.12;101055.56;111058;1208;97558;-60
2023/05/14 09:22:38;;;;;;;9.50;3.10;;;;;;;20.38;41.22;101046.65;110977;1209;138107;-59
2023/05/14 09:25:06;;;;;;;7.10;2.70;;;;;;;20.57;40.98;101049.23;110923;1212;97661;-61
2023/05/14 09:27:32;;;;;;;5.00;2.90;;;;;;;20.72;40.80;101048.56;110964;1206;138579;-63
2023/05/14 09:30:09;;;;;;;4.80;3.10;;;;;;;20.87;40.47;101043.73;110975;1206;97694;-61
2023/05/14 09:32:42;;;;;;;4.50;2.80;;;;;;;20.93;40.00;101042.30;111187;1206;97633;-65
2023/05/14 09:35:10;;;;;;;10.80;2.80;;;;;;;21.08;39.92;101041.48;110950;1206;138399;-65
2023/05/14 09:37:35;;;;;;;8.20;3.30;;;;;;;21.26;39.84;101033.48;111244;1211;102937;-68
2023/05/14 09:40:10;;;;;;;6.00;2.70;;;;;;;21.37;39.68;101035.48;110820;1210;137866;-69
2023/05/14 09:42:36;;;;;;;9.90;3.30;;;;;;;21.50;39.52;101033.82;110963;1206;98870;-67
2023/05/14 09:45:03;;;;;;;11.60;3.00;;;;;;;21.49;38.98;101031.55;110885;1206;96470;-69
2023/05/14 09:47:29;;;;;;;9.60;2.90;;;;;;;21.58;38.94;101030.04;110838;1206;138588;-69
2023/05/14 09:49:55;;;;;;;3.70;2.60;;;;;;;21.72;38.73;101021.30;110990;1206;97575;-70
2023/05/14 09:52:26;;;;;;;4.70;3.00;;;;;;;21.79;38.52;101020.72;111042;1206;138162;-71
2023/05/14 09:54:52;;;;;;;8.80;2.70;;;;;;;21.80;38.22;101019.67;111019;1222;97671;-71
2023/05/14 09:57:19;;;;;;;6.00;2.80;;;;;;;21.83;38.09;101013.42;110911;1206;137790;-70
2023/05/14 09:59:48;;;;;;;5.00;2.90;;;;;;;21.87;37.82;101014.02;111029;1206;98256;-67
2023/05/14 10:02:41;;;;;;;6.50;2.90;;;;;;;21.89;37.58;101011.83;111136;1206;97636;-64
2023/05/14 10:05:10;;;;;;;5.60;3.20;;;;;;;21.89;37.51;101009.08;110669;1206;137790;-64
2023/05/14 10:07:48;;;;;;;4.40;2.80;;;;;;;21.87;37.21;101002.16;111100;1206;97684;-67
2023/05/14 10:10:17;;;;;;;9.70;2.90;;;;;;;21.82;37.18;100999.51;111092;1212;137824;-66
2023/05/14 10:12:59;;;;;;;7.20;3.20;;;;;;;21.82;37.04;100991.52;111014;1212;102438;-67
2023/05/14 10:15:51;;;;;;;7.50;2.40;;;;;;;21.81;36.95;100985.08;110845;1210;138341;-65
2023/05/14 10:18:21;;;;;;;6.10;2.50;;;;;;;21.80;36.88;100975.33;110876;1206;99274;-65
2023/05/14 10:20:52;;;;;;;3.60;2.20;;;;;;;21.86;36.82;100973.86;110856;1208;97978;-65
2023/05/14 10:23:17;;;;;;;;;;;;;;;21.94;36.65;100966.23;110853;1206;137934;-67
2023/05/14 10:25:43;;;;;;;4.60;2.30;;;;;;;22.03;36.52;100964.05;111048;1209;97661;-65
2023/05/14 10:28:10;;;;;;;8.80;2.40;;;;;;;22.06;36.62;100959.05;110934;1206;137932;-65
2023/05/14 10:30:43;;;;;;;6.80;3.00;;;;;;;22.12;36.39;100950.13;110903;1206;97611;-66
2023/05/14 10:33:15;;;;;;;8.20;2.50;;;;;;;22.23;36.31;100945.20;111012;1209;97681;-66
2023/05/14 10:35:59;;;;;;;6.10;3.00;;;;;;;22.38;36.22;100944.80;110907;1213;139212;-66
2023/05/14 10:38:26;;;;;;;7.50;2.70;;;;;;;22.51;35.99;100944.14;111003;1209;97683;-68
2023/05/14 10:41:00;;;;;;;7.00;2.90;;;;;;;22.56;35.81;100940.09;110785;1210;138419;-69
2023/05/14 10:43:29;;;;;;;4.90;2.00;;;;;;;22.50;35.49;100935.67;110898;1205;97603;-68
2023/05/14 10:45:55;;;;;;;4.30;2.50;;;;;;;22.48;35.43;100935.11;110668;1209;137991;-67
2023/05/14 10:48:20;;;;;;;4.20;2.30;;;;;;;22.53;35.28;100932.01;110799;1209;97617;-68
2023/05/14 10:50:50;;;;;;;5.90;3.30;;;;;;;22.52;35.06;100929.86;110915;1206;97642;-67
2023/05/14 10:53:16;;;;;;;8.70;3.20;;;;;;;22.72;35.12;100926.80;110720;1209;137594;-67
2023/05/14 10:55:42;;;;;;;6.20;2.80;;;;;;;22.93;34.88;100921.64;110837;1206;97653;-67
2023/05/14 10:58:10;;;;;;;6.20;2.80;;;;;;;23.09;34.72;100909.39;110741;1208;138827;-68
2023/05/14 11:00:36;;;;;;;8.40;2.90;;;;;;;23.19;34.77;100905.23;110997;1208;98361;-66
2023/05/14 11:03:04;;;;;;;5.90;2.80;;;;;;;23.31;34.67;100898.88;110907;1208;97670;-68